createdAt,value
2018-12-16T00:00:13.987Z,2.68
2018-12-16T00:00:54.562Z,2.75
2018-12-16T00:01:35.117Z,2.8
2018-12-16T00:02:15.676Z,2.74
2018-12-16T00:02:56.239Z,2.69
2018-12-16T00:03:36.802Z,2.68
2018-12-16T00:04:17.357Z,2.74
2018-12-16T00:04:57.949Z,2.75
2018-12-16T00:05:38.511Z,2.69
2018-12-16T00:06:19.067Z,2.69
2018-12-16T00:06:59.655Z,2.68
2018-12-16T00:07:40.205Z,2.69
2018-12-16T00:08:20.771Z,2.67
2018-12-16T00:09:01.337Z,2.67
2018-12-16T00:09:41.905Z,2.6
2018-12-16T00:10:22.453Z,2.64
2018-12-16T00:11:03.000Z,2.6
2018-12-16T00:11:43.557Z,2.57
2018-12-16T00:12:24.106Z,2.61
2018-12-16T00:13:04.680Z,2.6
2018-12-16T00:13:45.240Z,2.6
2018-12-16T00:14:25.795Z,2.61
2018-12-16T00:15:06.338Z,2.6
2018-12-16T00:15:46.888Z,2.61
2018-12-16T00:16:27.445Z,2.61
2018-12-16T00:17:08.005Z,2.56
2018-12-16T00:17:48.580Z,2.57
2018-12-16T00:18:29.139Z,2.65
2018-12-16T00:19:09.686Z,2.56
2018-12-16T00:19:50.240Z,2.61
2018-12-16T00:20:30.792Z,2.6
2018-12-16T00:21:11.354Z,2.54
2018-12-16T00:21:51.907Z,2.57
2018-12-16T00:22:32.474Z,2.62
2018-12-16T00:23:13.021Z,2.6
2018-12-16T00:23:53.587Z,2.61
2018-12-16T00:24:34.145Z,2.6
2018-12-16T00:25:14.704Z,2.62
2018-12-16T00:25:55.258Z,2.54
2018-12-16T00:26:35.813Z,2.62
2018-12-16T00:27:16.367Z,2.64
2018-12-16T00:27:56.920Z,2.67
2018-12-16T00:28:37.483Z,2.68
2018-12-16T00:29:18.035Z,2.6
2018-12-16T00:29:58.603Z,2.61
2018-12-16T00:30:39.147Z,2.6
2018-12-16T00:31:19.704Z,2.61
2018-12-16T00:32:00.265Z,2.57
2018-12-16T00:32:40.830Z,2.68
2018-12-16T00:33:21.378Z,2.56
2018-12-16T00:34:01.927Z,2.64
2018-12-16T00:34:42.482Z,2.6
2018-12-16T00:35:23.034Z,2.62
2018-12-16T00:36:03.592Z,2.61
2018-12-16T00:36:44.147Z,2.62
2018-12-16T00:37:24.713Z,2.6
2018-12-16T00:38:05.283Z,2.61
2018-12-16T00:38:45.852Z,2.57
2018-12-16T00:39:26.394Z,2.56
2018-12-16T00:40:06.957Z,2.53
2018-12-16T00:40:47.497Z,2.56
2018-12-16T00:41:28.062Z,2.64
2018-12-16T00:42:08.622Z,2.54
2018-12-16T00:42:49.194Z,2.56
2018-12-16T00:43:29.746Z,2.56
2018-12-16T00:44:10.312Z,2.57
2018-12-16T00:44:50.886Z,2.57
2018-12-16T00:45:31.439Z,2.62
2018-12-16T00:46:11.977Z,2.57
2018-12-16T00:46:52.530Z,2.61
2018-12-16T00:47:33.094Z,2.64
2018-12-16T00:48:13.717Z,2.53
2018-12-16T00:48:54.280Z,2.61
2018-12-16T00:49:34.827Z,2.56
2018-12-16T00:50:15.398Z,2.57
2018-12-16T00:50:55.960Z,2.57
2018-12-16T00:51:36.588Z,2.46
2018-12-16T00:52:17.203Z,2.51
2018-12-16T00:52:57.756Z,2.51
2018-12-16T00:53:38.303Z,2.46
2018-12-16T00:54:18.860Z,2.46
2018-12-16T00:54:59.421Z,2.46
2018-12-16T00:55:40.002Z,2.47
2018-12-16T00:56:20.552Z,2.47
2018-12-16T00:57:01.106Z,2.43
2018-12-16T00:57:41.765Z,2.49
2018-12-16T00:58:22.334Z,2.39
2018-12-16T00:59:02.894Z,2.49
2018-12-16T00:59:43.457Z,2.44
2018-12-16T01:00:24.021Z,2.47
2018-12-16T01:01:04.569Z,2.43
2018-12-16T01:01:45.123Z,2.42
2018-12-16T01:02:25.694Z,2.38
2018-12-16T01:03:06.280Z,2.43
2018-12-16T01:03:46.921Z,2.43
2018-12-16T01:04:27.407Z,2.43
2018-12-16T01:05:07.933Z,2.43
2018-12-16T01:05:48.499Z,2.46
2018-12-16T01:06:29.064Z,2.49
2018-12-16T01:07:09.652Z,2.44
2018-12-16T01:07:50.205Z,2.43
2018-12-16T01:08:30.766Z,2.39
2018-12-16T01:09:11.356Z,2.43
2018-12-16T01:09:51.959Z,2.33
2018-12-16T01:10:32.467Z,2.35
2018-12-16T01:11:13.031Z,2.39
2018-12-16T01:11:53.620Z,2.33
2018-12-16T01:12:34.179Z,2.43
2018-12-16T01:13:14.746Z,2.39
2018-12-16T01:13:55.297Z,2.35
2018-12-16T01:14:35.884Z,2.39
2018-12-16T01:15:16.432Z,2.39
2018-12-16T01:15:57.008Z,2.39
2018-12-16T01:16:37.583Z,2.46
2018-12-16T01:17:18.138Z,2.49
2018-12-16T01:17:58.695Z,2.44
2018-12-16T01:18:39.252Z,2.5
2018-12-16T01:19:19.807Z,2.44
2018-12-16T01:20:00.367Z,2.47
2018-12-16T01:20:40.918Z,2.36
2018-12-16T01:21:21.469Z,2.43
2018-12-16T01:22:02.030Z,2.38
2018-12-16T01:22:43.497Z,2.44
2018-12-16T01:23:23.117Z,2.33
2018-12-16T01:24:03.688Z,2.33
2018-12-16T01:24:44.252Z,2.32
2018-12-16T01:25:24.842Z,2.32
2018-12-16T01:26:05.402Z,2.29
2018-12-16T01:26:45.967Z,2.33
2018-12-16T01:27:26.512Z,2.31
2018-12-16T01:28:07.073Z,2.39
2018-12-16T01:28:47.626Z,2.36
2018-12-16T01:29:28.182Z,2.38
2018-12-16T01:30:08.737Z,2.32
2018-12-16T01:30:49.293Z,2.33
2018-12-16T01:31:29.855Z,2.38
2018-12-16T01:32:10.417Z,2.46
2018-12-16T01:32:50.976Z,2.38
2018-12-16T01:33:31.531Z,2.35
2018-12-16T01:34:12.320Z,2.42
2018-12-16T01:34:52.859Z,2.36
2018-12-16T01:35:33.410Z,2.44
2018-12-16T01:36:13.967Z,2.46
2018-12-16T01:36:54.524Z,2.38
2018-12-16T01:37:35.061Z,2.33
2018-12-16T01:38:15.622Z,2.33
2018-12-16T01:38:56.185Z,2.29
2018-12-16T01:39:36.739Z,2.31
2018-12-16T01:40:17.295Z,2.38
2018-12-16T01:40:57.842Z,2.32
2018-12-16T01:41:38.396Z,2.35
2018-12-16T01:42:18.946Z,2.31
2018-12-16T01:42:59.493Z,2.29
2018-12-16T01:43:40.046Z,2.28
2018-12-16T01:44:20.625Z,2.32
2018-12-16T01:45:01.177Z,2.31
2018-12-16T01:45:41.724Z,2.33
2018-12-16T01:46:22.397Z,2.28
2018-12-16T01:47:02.965Z,2.29
2018-12-16T01:47:43.512Z,2.32
2018-12-16T01:48:24.089Z,2.35
2018-12-16T01:49:04.653Z,2.38
2018-12-16T01:49:45.200Z,2.29
2018-12-16T01:50:25.756Z,2.29
2018-12-16T01:51:06.331Z,2.32
2018-12-16T01:51:46.879Z,2.29
2018-12-16T01:52:27.432Z,2.32
2018-12-16T01:53:08.039Z,2.35
2018-12-16T01:53:48.619Z,2.32
2018-12-16T01:54:29.172Z,2.36
2018-12-16T01:55:09.733Z,2.33
2018-12-16T01:55:50.289Z,2.28
2018-12-16T01:56:30.882Z,2.36
2018-12-16T01:57:11.437Z,2.29
2018-12-16T01:57:52.000Z,2.28
2018-12-16T01:58:32.564Z,2.28
2018-12-16T01:59:13.126Z,2.22
2018-12-16T01:59:53.685Z,2.38
2018-12-16T02:00:34.249Z,2.24
2018-12-16T02:01:14.808Z,2.17
2018-12-16T02:01:55.347Z,2.22
2018-12-16T02:02:35.899Z,2.26
2018-12-16T02:03:16.454Z,2.26
2018-12-16T02:03:57.010Z,2.26
2018-12-16T02:04:37.587Z,2.18
2018-12-16T02:05:18.110Z,2.31
2018-12-16T02:05:58.671Z,2.18
2018-12-16T02:06:39.280Z,2.15
2018-12-16T02:07:19.850Z,2.18
2018-12-16T02:08:00.387Z,2.15
2018-12-16T02:08:40.942Z,2.2
2018-12-16T02:09:21.507Z,2.2
2018-12-16T02:10:02.063Z,2.22
2018-12-16T02:10:42.616Z,2.24
2018-12-16T02:11:23.212Z,2.29
2018-12-16T02:12:03.770Z,2.17
2018-12-16T02:12:44.345Z,2.18
2018-12-16T02:13:24.896Z,2.18
2018-12-16T02:14:05.563Z,2.25
2018-12-16T02:14:46.126Z,2.17
2018-12-16T02:15:26.702Z,2.24
2018-12-16T02:16:07.270Z,2.2
2018-12-16T02:16:47.861Z,2.24
2018-12-16T02:17:28.426Z,2.24
2018-12-16T02:18:08.988Z,2.24
2018-12-16T02:18:49.555Z,2.17
2018-12-16T02:19:30.106Z,2.15
2018-12-16T02:20:10.668Z,2.06
2018-12-16T02:20:51.241Z,2.25
2018-12-16T02:21:31.791Z,2.24
2018-12-16T02:22:12.362Z,2.11
2018-12-16T02:22:56.748Z,2.14
2018-12-16T02:23:33.464Z,2.14
2018-12-16T02:24:14.038Z,2.18
2018-12-16T02:24:54.603Z,2.14
2018-12-16T02:25:35.158Z,2.1
2018-12-16T02:26:15.726Z,2.14
2018-12-16T02:26:56.291Z,2.15
2018-12-16T02:27:36.844Z,2.13
2018-12-16T02:28:17.403Z,2.15
2018-12-16T02:28:57.961Z,2.1
2018-12-16T02:29:38.538Z,2.13
2018-12-16T02:30:19.094Z,2.14
2018-12-16T02:30:59.666Z,2.15
2018-12-16T02:31:40.240Z,2.14
2018-12-16T02:32:20.800Z,2.08
2018-12-16T02:33:01.355Z,2.25
2018-12-16T02:33:41.911Z,2.24
2018-12-16T02:34:22.470Z,2.13
2018-12-16T02:35:03.025Z,2.14
2018-12-16T02:35:43.593Z,2.25
2018-12-16T02:36:24.152Z,2.24
2018-12-16T02:37:04.706Z,2.22
2018-12-16T02:37:45.256Z,2.22
2018-12-16T02:38:25.826Z,2.15
2018-12-16T02:39:06.403Z,2.13
2018-12-16T02:39:46.976Z,2.24
2018-12-16T02:40:27.530Z,2.15
2018-12-16T02:41:08.083Z,2.13
2018-12-16T02:41:48.639Z,2.07
2018-12-16T02:42:29.200Z,2.25
2018-12-16T02:43:09.746Z,2.17
2018-12-16T02:43:50.329Z,2.15
2018-12-16T02:44:30.895Z,2.14
2018-12-16T02:45:11.456Z,2.24
2018-12-16T02:45:52.023Z,2.17
2018-12-16T02:46:32.573Z,2.28
2018-12-16T02:47:13.127Z,2.26
2018-12-16T02:47:53.684Z,2.22
2018-12-16T02:48:34.231Z,2.28
2018-12-16T02:49:14.787Z,2.17
2018-12-16T02:49:55.337Z,2.15
2018-12-16T02:50:35.901Z,2.22
2018-12-16T02:51:16.495Z,2.17
2018-12-16T02:51:57.068Z,2.28
2018-12-16T02:52:37.635Z,2.2
2018-12-16T02:53:18.191Z,2.25
2018-12-16T02:53:58.752Z,2.22
2018-12-16T02:54:39.305Z,2.25
2018-12-16T02:55:19.866Z,2.2
2018-12-16T02:56:00.432Z,2.18
2018-12-16T02:56:40.986Z,2.31
2018-12-16T02:57:21.566Z,2.26
2018-12-16T02:58:02.115Z,2.22
2018-12-16T02:58:42.676Z,2.18
2018-12-16T02:59:23.264Z,2.14
2018-12-16T03:00:03.821Z,2.15
2018-12-16T03:00:44.390Z,2.1
2018-12-16T03:01:24.955Z,2.11
2018-12-16T03:02:05.527Z,2.15
2018-12-16T03:02:46.093Z,2.1
2018-12-16T03:03:26.642Z,2.22
2018-12-16T03:04:07.202Z,2.22
2018-12-16T03:04:47.764Z,2.22
2018-12-16T03:05:28.318Z,2.24
2018-12-16T03:06:08.877Z,2.14
2018-12-16T03:06:49.438Z,2.2
2018-12-16T03:07:30.025Z,2.11
2018-12-16T03:08:10.578Z,2.17
2018-12-16T03:08:51.153Z,2.22
2018-12-16T03:09:31.733Z,2.22
2018-12-16T03:10:12.258Z,2.25
2018-12-16T03:10:52.805Z,2.15
2018-12-16T03:11:33.354Z,2.1
2018-12-16T03:12:13.906Z,2.15
2018-12-16T03:12:54.461Z,2.22
2018-12-16T03:13:35.012Z,2.17
2018-12-16T03:14:15.583Z,2.15
2018-12-16T03:14:56.145Z,2.11
2018-12-16T03:15:36.698Z,2.28
2018-12-16T03:16:17.261Z,2.24
2018-12-16T03:16:57.816Z,2.1
2018-12-16T03:17:38.366Z,2.22
2018-12-16T03:18:18.921Z,2.15
2018-12-16T03:18:59.471Z,2.22
2018-12-16T03:19:40.028Z,2.17
2018-12-16T03:20:20.578Z,2.14
2018-12-16T03:21:01.142Z,2.28
2018-12-16T03:21:41.698Z,2.26
2018-12-16T03:22:22.251Z,2.11
2018-12-16T03:23:02.806Z,2.28
2018-12-16T03:23:43.357Z,2.26
2018-12-16T03:24:23.917Z,2.24
2018-12-16T03:25:04.455Z,2.25
2018-12-16T03:25:45.024Z,2.22
2018-12-16T03:26:25.581Z,2.17
2018-12-16T03:27:06.177Z,2.29
2018-12-16T03:27:46.683Z,2.2
2018-12-16T03:28:27.236Z,2.17
2018-12-16T03:29:07.789Z,2.32
2018-12-16T03:29:48.338Z,2.15
2018-12-16T03:30:28.896Z,2.24
2018-12-16T03:31:09.445Z,2.24
2018-12-16T03:31:50.038Z,2.24
2018-12-16T03:32:30.601Z,2.22
2018-12-16T03:33:11.158Z,2.28
2018-12-16T03:33:51.725Z,2.25
2018-12-16T03:34:32.279Z,2.25
2018-12-16T03:35:12.837Z,2.24
2018-12-16T03:35:53.383Z,2.28
2018-12-16T03:36:33.940Z,2.24
2018-12-16T03:37:14.488Z,2.2
2018-12-16T03:37:55.030Z,2.2
2018-12-16T03:38:35.588Z,2.22
2018-12-16T03:39:16.138Z,2.18
2018-12-16T03:39:56.690Z,2.25
2018-12-16T03:40:37.243Z,2.18
2018-12-16T03:41:17.797Z,2.25
2018-12-16T03:41:58.361Z,2.26
2018-12-16T03:42:38.931Z,2.25
2018-12-16T03:43:19.501Z,2.22
2018-12-16T03:44:00.071Z,2.22
2018-12-16T03:44:40.633Z,2.22
2018-12-16T03:45:21.212Z,2.25
2018-12-16T03:46:01.761Z,2.29
2018-12-16T03:46:42.328Z,2.24
2018-12-16T03:47:22.863Z,2.25
2018-12-16T03:48:03.428Z,2.18
2018-12-16T03:48:43.983Z,2.26
2018-12-16T03:49:24.545Z,2.28
2018-12-16T03:50:05.104Z,2.24
2018-12-16T03:50:45.671Z,2.18
2018-12-16T03:51:26.231Z,2.18
2018-12-16T03:52:06.781Z,2.2
2018-12-16T03:52:47.321Z,2.36
2018-12-16T03:53:27.880Z,2.31
2018-12-16T03:54:08.439Z,2.24
2018-12-16T03:54:48.997Z,2.32
2018-12-16T03:55:29.557Z,2.26
2018-12-16T03:56:10.100Z,2.35
2018-12-16T03:56:50.675Z,2.32
2018-12-16T03:57:31.221Z,2.35
2018-12-16T03:58:11.787Z,2.32
2018-12-16T03:58:52.321Z,2.31
2018-12-16T03:59:32.873Z,2.26
2018-12-16T04:00:13.431Z,2.25
2018-12-16T04:00:53.989Z,2.28
2018-12-16T04:01:34.554Z,2.22
2018-12-16T04:02:15.127Z,2.32
2018-12-16T04:02:55.688Z,2.26
2018-12-16T04:03:36.256Z,2.25
2018-12-16T04:04:16.815Z,2.24
2018-12-16T04:04:57.359Z,2.25
2018-12-16T04:05:37.930Z,2.33
2018-12-16T04:06:18.487Z,2.31
2018-12-16T04:06:59.048Z,2.32
2018-12-16T04:07:39.599Z,2.29
2018-12-16T04:08:20.160Z,2.33
2018-12-16T04:09:00.711Z,2.32
2018-12-16T04:09:41.286Z,2.32
2018-12-16T04:10:21.834Z,2.33
2018-12-16T04:11:02.388Z,2.35
2018-12-16T04:11:42.931Z,2.33
2018-12-16T04:12:23.496Z,2.36
2018-12-16T04:13:04.069Z,2.32
2018-12-16T04:13:44.623Z,2.32
2018-12-16T04:14:25.181Z,2.32
2018-12-16T04:15:05.741Z,2.33
2018-12-16T04:15:46.296Z,2.33
2018-12-16T04:16:26.852Z,2.32
2018-12-16T04:17:07.397Z,2.33
2018-12-16T04:17:47.944Z,2.32
2018-12-16T04:18:28.502Z,2.29
2018-12-16T04:19:09.046Z,2.29
2018-12-16T04:19:49.603Z,2.35
2018-12-16T04:20:30.172Z,2.31
2018-12-16T04:21:10.738Z,2.35
2018-12-16T04:21:51.293Z,2.36
2018-12-16T04:22:31.868Z,2.33
2018-12-16T04:23:12.432Z,2.35
2018-12-16T04:23:52.984Z,2.32
2018-12-16T04:24:33.535Z,2.33
2018-12-16T04:25:14.093Z,2.36
2018-12-16T04:25:54.651Z,2.28
2018-12-16T04:26:35.203Z,2.32
2018-12-16T04:27:15.764Z,2.33
2018-12-16T04:27:56.342Z,2.42
2018-12-16T04:28:36.895Z,2.35
2018-12-16T04:29:17.457Z,2.32
2018-12-16T04:29:58.017Z,2.26
2018-12-16T04:30:38.582Z,2.28
2018-12-16T04:31:19.149Z,2.36
2018-12-16T04:31:59.705Z,2.31
2018-12-16T04:32:40.293Z,2.28
2018-12-16T04:33:20.846Z,2.33
2018-12-16T04:34:01.402Z,2.35
2018-12-16T04:34:41.963Z,2.33
2018-12-16T04:35:22.516Z,2.31
2018-12-16T04:36:03.072Z,2.36
2018-12-16T04:36:43.623Z,2.28
2018-12-16T04:37:24.192Z,2.32
2018-12-16T04:38:04.755Z,2.35
2018-12-16T04:38:45.306Z,2.26
2018-12-16T04:39:25.870Z,2.36
2018-12-16T04:40:06.423Z,2.31
2018-12-16T04:40:46.974Z,2.28
2018-12-16T04:41:27.530Z,2.33
2018-12-16T04:42:08.094Z,2.36
2018-12-16T04:42:48.646Z,2.35
2018-12-16T04:43:29.204Z,2.29
2018-12-16T04:44:09.757Z,2.28
2018-12-16T04:44:50.308Z,2.29
2018-12-16T04:45:30.878Z,2.36
2018-12-16T04:46:11.437Z,2.29
2018-12-16T04:46:52.049Z,2.32
2018-12-16T04:47:32.617Z,2.31
2018-12-16T04:48:13.163Z,2.32
2018-12-16T04:48:53.728Z,2.35
2018-12-16T04:49:34.290Z,2.33
2018-12-16T04:50:14.845Z,2.28
2018-12-16T04:50:55.392Z,2.31
2018-12-16T04:51:35.959Z,2.32
2018-12-16T04:52:16.520Z,2.25
2018-12-16T04:52:57.071Z,2.32
2018-12-16T04:53:37.633Z,2.32
2018-12-16T04:54:18.188Z,2.36
2018-12-16T04:54:58.739Z,2.28
2018-12-16T04:55:39.288Z,2.29
2018-12-16T04:56:19.830Z,2.35
2018-12-16T04:57:00.389Z,2.33
2018-12-16T04:57:40.946Z,2.29
2018-12-16T04:58:21.511Z,2.29
2018-12-16T04:59:02.067Z,2.32
2018-12-16T04:59:42.621Z,2.32
2018-12-16T05:00:23.195Z,2.31
2018-12-16T05:01:03.724Z,2.29
2018-12-16T05:01:44.295Z,2.24
2018-12-16T05:02:24.870Z,2.32
2018-12-16T05:03:05.427Z,2.29
2018-12-16T05:03:45.974Z,2.32
2018-12-16T05:04:26.523Z,2.2
2018-12-16T05:05:07.082Z,2.25
2018-12-16T05:05:47.634Z,2.26
2018-12-16T05:06:28.211Z,2.24
2018-12-16T05:07:08.766Z,2.2
2018-12-16T05:07:49.303Z,2.22
2018-12-16T05:08:29.857Z,2.25
2018-12-16T05:09:10.414Z,2.25
2018-12-16T05:09:50.960Z,2.25
2018-12-16T05:10:31.520Z,2.22
2018-12-16T05:11:12.075Z,2.25
2018-12-16T05:11:52.630Z,2.25
2018-12-16T05:12:33.181Z,2.25
2018-12-16T05:13:13.745Z,2.25
2018-12-16T05:13:54.305Z,2.22
2018-12-16T05:14:34.881Z,2.2
2018-12-16T05:15:15.431Z,2.26
2018-12-16T05:15:55.997Z,2.26
2018-12-16T05:16:36.549Z,2.25
2018-12-16T05:17:17.241Z,2.18
2018-12-16T05:17:57.887Z,2.24
2018-12-16T05:18:38.436Z,2.24
2018-12-16T05:19:19.490Z,2.24
2018-12-16T05:20:00.138Z,2.14
2018-12-16T05:20:41.062Z,2.24
2018-12-16T05:21:22.090Z,2.28
2018-12-16T05:22:03.128Z,2.26
2018-12-16T05:22:43.854Z,2.24
2018-12-16T05:23:24.689Z,2.25
2018-12-16T05:24:05.498Z,2.24
2018-12-16T05:24:46.052Z,2.24
2018-12-16T05:25:26.747Z,2.25
2018-12-16T05:26:07.393Z,2.25
2018-12-16T05:26:48.032Z,2.17
2018-12-16T05:27:28.549Z,2.24
2018-12-16T05:28:09.109Z,2.28
2018-12-16T05:28:50.008Z,2.24
2018-12-16T05:29:30.813Z,2.2
2018-12-16T05:30:11.358Z,2.2
2018-12-16T05:30:52.242Z,2.28
2018-12-16T05:31:32.803Z,2.24
2018-12-16T05:32:13.355Z,2.25
2018-12-16T05:32:53.924Z,2.2
2018-12-16T05:33:34.771Z,2.35
2018-12-16T05:34:15.433Z,2.25
2018-12-16T05:34:56.213Z,2.26
2018-12-16T05:35:36.884Z,2.24
2018-12-16T05:36:17.458Z,2.24
2018-12-16T05:36:58.202Z,2.22
2018-12-16T05:37:38.760Z,2.24
2018-12-16T05:38:19.306Z,2.26
2018-12-16T05:38:59.861Z,2.26
2018-12-16T05:39:40.408Z,2.17
2018-12-16T05:40:20.963Z,2.24
2018-12-16T05:41:01.506Z,2.25
2018-12-16T05:41:42.070Z,2.18
2018-12-16T05:42:22.658Z,2.25
2018-12-16T05:43:03.217Z,2.24
2018-12-16T05:43:43.784Z,2.2
2018-12-16T05:44:24.370Z,2.22
2018-12-16T05:45:04.932Z,2.22
2018-12-16T05:45:45.470Z,2.22
2018-12-16T05:46:26.022Z,2.2
2018-12-16T05:47:06.717Z,2.17
2018-12-16T05:47:47.330Z,2.15
2018-12-16T05:48:28.004Z,2.15
2018-12-16T05:49:08.558Z,2.17
2018-12-16T05:49:49.733Z,2.13
2018-12-16T05:50:30.469Z,2.17
2018-12-16T05:51:11.160Z,2.15
2018-12-16T05:51:51.724Z,2.14
2018-12-16T05:52:32.315Z,2.18
2018-12-16T05:53:12.986Z,2.14
2018-12-16T05:53:53.725Z,2.14
2018-12-16T05:54:34.533Z,2.1
2018-12-16T05:55:15.207Z,2.15
2018-12-16T05:55:55.779Z,2.17
2018-12-16T05:56:36.598Z,2.13
2018-12-16T05:57:17.241Z,2.13
2018-12-16T05:57:57.804Z,2.15
2018-12-16T05:58:38.410Z,2.15
2018-12-16T05:59:18.971Z,2.15
2018-12-16T05:59:59.641Z,2.11
2018-12-16T06:00:40.324Z,2.13
2018-12-16T06:01:20.890Z,2.13
2018-12-16T06:02:01.709Z,2.13
2018-12-16T06:02:42.738Z,2.14
2018-12-16T06:03:23.432Z,2.17
2018-12-16T06:04:14.365Z,2.17
2018-12-16T06:04:56.095Z,2.1
2018-12-16T06:05:37.451Z,2.15
2018-12-16T06:06:18.188Z,2.08
2018-12-16T06:06:58.860Z,2.18
2018-12-16T06:07:39.683Z,2.11
2018-12-16T06:08:20.357Z,2.15
2018-12-16T06:09:00.929Z,2.2
2018-12-16T06:09:41.493Z,2.13
2018-12-16T06:10:22.056Z,2.11
2018-12-16T06:11:02.612Z,2.13
2018-12-16T06:11:43.236Z,2.08
2018-12-16T06:12:23.802Z,2.08
2018-12-16T06:13:04.363Z,2.17
2018-12-16T06:13:45.108Z,2.15
2018-12-16T06:14:25.725Z,2.06
2018-12-16T06:15:06.630Z,2.11
2018-12-16T06:15:47.186Z,2.15
2018-12-16T06:16:27.762Z,2.08
2018-12-16T06:17:08.328Z,2.13
2018-12-16T06:17:49.002Z,2.1
2018-12-16T06:18:29.672Z,2.15
2018-12-16T06:19:10.234Z,2.15
2018-12-16T06:19:50.902Z,2.15
2018-12-16T06:20:31.492Z,2.07
2018-12-16T06:21:12.075Z,2.15
2018-12-16T06:21:52.659Z,2.08
2018-12-16T06:22:33.327Z,2.1
2018-12-16T06:23:13.877Z,2.08
2018-12-16T06:23:55.652Z,2.14
2018-12-16T06:24:35.163Z,2.15
2018-12-16T06:25:15.720Z,2.08
2018-12-16T06:25:56.423Z,2.06
2018-12-16T06:26:36.972Z,2.13
2018-12-16T06:27:17.651Z,2.11
2018-12-16T06:27:58.225Z,1.95
2018-12-16T06:28:38.814Z,2.04
2018-12-16T06:29:19.550Z,2.04
2018-12-16T06:30:00.204Z,1.99
2018-12-16T06:30:40.765Z,1.99
2018-12-16T06:31:21.327Z,1.99
2018-12-16T06:32:02.139Z,1.99
2018-12-16T06:32:42.682Z,1.97
2018-12-16T06:33:23.325Z,1.94
2018-12-16T06:34:04.133Z,1.92
2018-12-16T06:34:44.696Z,1.95
2018-12-16T06:35:25.242Z,1.99
2018-12-16T06:36:06.123Z,1.95
2018-12-16T06:36:46.692Z,2
2018-12-16T06:37:27.253Z,1.95
2018-12-16T06:38:07.810Z,2
2018-12-16T06:38:49.304Z,1.94
2018-12-16T06:39:29.868Z,2
2018-12-16T06:40:10.425Z,1.99
2018-12-16T06:40:51.185Z,1.95
2018-12-16T06:41:31.888Z,2.04
2018-12-16T06:42:12.443Z,2.04
2018-12-16T06:42:53.208Z,1.99
2018-12-16T06:43:33.996Z,1.95
2018-12-16T06:44:14.698Z,1.94
2018-12-16T06:44:55.252Z,2
2018-12-16T06:45:35.845Z,1.99
2018-12-16T06:46:16.410Z,2
2018-12-16T06:46:56.985Z,1.95
2018-12-16T06:47:37.545Z,1.95
2018-12-16T06:48:18.097Z,1.94
2018-12-16T06:48:58.665Z,2
2018-12-16T06:49:39.229Z,1.97
2018-12-16T06:50:19.826Z,1.97
2018-12-16T06:51:00.372Z,2.02
2018-12-16T06:51:40.938Z,2.02
2018-12-16T06:52:21.627Z,2.04
2018-12-16T06:53:02.297Z,2.02
2018-12-16T06:53:42.958Z,1.99
2018-12-16T06:54:23.513Z,2.04
2018-12-16T06:55:04.056Z,2
2018-12-16T06:55:44.627Z,1.99
2018-12-16T06:56:25.241Z,1.97
2018-12-16T06:57:06.943Z,1.92
2018-12-16T06:57:47.965Z,2.06
2018-12-16T06:58:28.775Z,1.92
2018-12-16T06:59:09.340Z,1.99
2018-12-16T06:59:49.909Z,1.99
2018-12-16T07:00:30.484Z,1.87
2018-12-16T07:01:11.036Z,1.89
2018-12-16T07:01:51.625Z,1.81
2018-12-16T07:02:32.179Z,1.89
2018-12-16T07:03:13.051Z,1.8
2018-12-16T07:03:53.668Z,1.84
2018-12-16T07:04:34.216Z,1.84
2018-12-16T07:05:14.959Z,1.78
2018-12-16T07:05:55.719Z,1.76
2018-12-16T07:06:36.378Z,1.81
2018-12-16T07:07:16.950Z,1.74
2018-12-16T07:07:58.624Z,1.73
2018-12-16T07:08:39.176Z,1.8
2018-12-16T07:09:19.738Z,1.85
2018-12-16T07:10:00.332Z,1.73
2018-12-16T07:10:40.892Z,1.73
2018-12-16T07:11:21.618Z,1.76
2018-12-16T07:12:02.172Z,1.74
2018-12-16T07:12:43.332Z,1.84
2018-12-16T07:13:23.460Z,1.8
2018-12-16T07:14:04.505Z,1.8
2018-12-16T07:14:45.097Z,1.77
2018-12-16T07:15:25.899Z,1.74
2018-12-16T07:16:06.583Z,1.81
2018-12-16T07:16:47.163Z,1.73
2018-12-16T07:17:27.710Z,1.74
2018-12-16T07:18:08.318Z,1.85
2018-12-16T07:18:49.318Z,1.77
2018-12-16T07:19:30.073Z,1.85
2018-12-16T07:20:11.173Z,1.8
2018-12-16T07:20:52.032Z,1.8
2018-12-16T07:21:33.551Z,1.91
2018-12-16T07:22:14.511Z,1.92
2018-12-16T07:22:55.329Z,1.81
2018-12-16T07:23:36.029Z,1.84
2018-12-16T07:24:16.849Z,1.81
2018-12-16T07:24:57.628Z,1.74
2018-12-16T07:25:38.424Z,1.74
2018-12-16T07:26:19.058Z,1.77
2018-12-16T07:26:59.946Z,1.73
2018-12-16T07:27:40.534Z,1.73
2018-12-16T07:28:21.223Z,1.74
2018-12-16T07:29:01.790Z,1.76
2018-12-16T07:29:42.835Z,1.74
2018-12-16T07:30:23.394Z,1.7
2018-12-16T07:31:04.139Z,1.76
2018-12-16T07:31:44.842Z,1.73
2018-12-16T07:32:25.601Z,1.76
2018-12-16T07:33:06.481Z,1.76
2018-12-16T07:33:47.304Z,1.7
2018-12-16T07:34:27.962Z,1.7
2018-12-16T07:35:08.677Z,1.76
2018-12-16T07:35:49.403Z,1.66
2018-12-16T07:36:30.087Z,1.62
2018-12-16T07:37:10.783Z,1.62
2018-12-16T07:37:51.334Z,1.66
2018-12-16T07:38:31.952Z,1.63
2018-12-16T07:39:12.614Z,1.67
2018-12-16T07:39:53.104Z,1.67
2018-12-16T07:40:33.643Z,1.56
2018-12-16T07:41:14.217Z,1.53
2018-12-16T07:41:54.753Z,1.55
2018-12-16T07:42:35.303Z,1.52
2018-12-16T07:43:15.843Z,1.55
2018-12-16T07:43:56.527Z,1.55
2018-12-16T07:44:37.181Z,1.45
2018-12-16T07:45:17.748Z,1.63
2018-12-16T07:45:58.407Z,1.62
2018-12-16T07:46:38.969Z,1.63
2018-12-16T07:47:19.602Z,1.6
2018-12-16T07:48:00.271Z,1.66
2018-12-16T07:48:41.049Z,1.59
2018-12-16T07:49:21.601Z,1.63
2018-12-16T07:50:02.197Z,1.62
2018-12-16T07:50:43.222Z,1.6
2018-12-16T07:51:23.834Z,1.58
2018-12-16T07:52:04.776Z,1.58
2018-12-16T07:52:45.696Z,1.67
2018-12-16T07:53:26.330Z,1.59
2018-12-16T07:54:06.884Z,1.58
2018-12-16T07:54:47.597Z,1.62
2018-12-16T07:55:28.287Z,1.71
2018-12-16T07:56:08.823Z,1.68
2018-12-16T07:56:49.415Z,1.66
2018-12-16T07:57:29.976Z,1.76
2018-12-16T07:58:10.568Z,1.58
2018-12-16T07:58:51.115Z,1.73
2018-12-16T07:59:31.751Z,1.73
2018-12-16T08:00:12.606Z,1.68
2018-12-16T08:00:53.444Z,1.67
2018-12-16T08:01:33.992Z,1.7
2018-12-16T08:02:14.619Z,1.74
2018-12-16T08:02:55.113Z,1.74
2018-12-16T08:03:35.671Z,1.76
2018-12-16T08:04:16.253Z,1.74
2018-12-16T08:04:56.813Z,1.78
2018-12-16T08:05:37.361Z,1.81
2018-12-16T08:06:17.921Z,1.84
2018-12-16T08:06:58.517Z,1.94
2018-12-16T08:07:39.117Z,1.94
2018-12-16T08:08:20.065Z,1.97
2018-12-16T08:09:00.764Z,1.85
2018-12-16T08:09:41.329Z,1.89
2018-12-16T08:10:21.909Z,1.94
2018-12-16T08:11:02.648Z,1.92
2018-12-16T08:11:43.211Z,1.97
2018-12-16T08:12:23.835Z,1.92
2018-12-16T08:13:04.641Z,1.97
2018-12-16T08:13:45.741Z,2
2018-12-16T08:14:26.445Z,2.02
2018-12-16T08:15:07.224Z,1.91
2018-12-16T08:15:47.970Z,1.95
2018-12-16T08:16:28.710Z,1.87
2018-12-16T08:17:09.738Z,1.77
2018-12-16T08:17:50.567Z,1.88
2018-12-16T08:18:31.202Z,1.89
2018-12-16T08:19:11.936Z,1.78
2018-12-16T08:19:52.549Z,1.78
2018-12-16T08:20:33.655Z,1.76
2018-12-16T08:21:14.389Z,1.81
2018-12-16T08:21:55.377Z,1.8
2018-12-16T08:22:36.063Z,1.76
2018-12-16T08:23:17.079Z,1.78
2018-12-16T08:23:57.746Z,1.77
2018-12-16T08:24:38.607Z,1.78
2018-12-16T08:25:19.623Z,1.88
2018-12-16T08:26:00.613Z,1.76
2018-12-16T08:26:41.629Z,1.78
2018-12-16T08:27:22.558Z,1.8
2018-12-16T08:28:03.116Z,1.88
2018-12-16T08:28:43.669Z,1.91
2018-12-16T08:29:24.638Z,1.91
2018-12-16T08:30:05.727Z,1.92
2018-12-16T08:30:46.516Z,1.97
2018-12-16T08:31:27.093Z,2
2018-12-16T08:32:07.730Z,1.95
2018-12-16T08:32:48.297Z,1.94
2018-12-16T08:33:28.834Z,1.95
2018-12-16T08:34:09.399Z,1.94
2018-12-16T08:34:49.957Z,1.97
2018-12-16T08:35:30.519Z,1.92
2018-12-16T08:36:11.061Z,1.94
2018-12-16T08:36:51.616Z,1.95
2018-12-16T08:37:32.209Z,1.91
2018-12-16T08:38:12.772Z,1.94
2018-12-16T08:38:53.336Z,1.92
2018-12-16T08:39:33.899Z,1.99
2018-12-16T08:40:14.450Z,1.88
2018-12-16T08:40:55.006Z,1.94
2018-12-16T08:41:35.567Z,1.88
2018-12-16T08:42:16.121Z,1.91
2018-12-16T08:42:56.688Z,1.76
2018-12-16T08:43:37.241Z,1.8
2018-12-16T08:44:17.798Z,1.77
2018-12-16T08:44:58.368Z,1.78
2018-12-16T08:45:38.934Z,1.81
2018-12-16T08:46:19.518Z,1.8
2018-12-16T08:47:00.065Z,1.76
2018-12-16T08:47:40.620Z,1.73
2018-12-16T08:48:21.165Z,1.8
2018-12-16T08:49:01.703Z,1.76
2018-12-16T08:49:42.250Z,1.78
2018-12-16T08:50:22.811Z,1.73
2018-12-16T08:51:03.366Z,1.74
2018-12-16T08:51:43.934Z,1.76
2018-12-16T08:52:24.476Z,1.8
2018-12-16T08:53:05.026Z,1.74
2018-12-16T08:53:45.582Z,1.78
2018-12-16T08:54:30.017Z,1.7
2018-12-16T08:55:06.702Z,1.7
2018-12-16T08:55:47.269Z,1.73
2018-12-16T08:56:27.833Z,1.8
2018-12-16T08:57:08.385Z,1.74
2018-12-16T08:57:48.965Z,1.78
2018-12-16T08:58:29.506Z,1.77
2018-12-16T08:59:10.071Z,1.74
2018-12-16T08:59:50.609Z,1.7
2018-12-16T09:00:31.190Z,1.74
2018-12-16T09:01:11.739Z,1.74
2018-12-16T09:01:52.308Z,1.71
2018-12-16T09:02:32.867Z,1.66